This is the latest recevied weather packets stored in our database for station/object R2AKT-13. If no packets are shown the sender has not sent any weather packets the latest 10 day(s).
| Time | Temp. | Humidity | Pressure | Rain* | Wind** | Luminosity | Snow |
|---|---|---|---|---|---|---|---|
| 1777568059 | 3.33° C | 54% | 997.1 hPa | - | 0 m/s | - | - |
| 1777567554 | 3.89° C | 52% | 997 hPa | - | 0.45 m/s, 220° | - | - |
| 1777567074 | 3.89° C | 53% | 997 hPa | - | 0 m/s | - | - |
| 1777566509 | 3.89° C | 53% | 997 hPa | - | 0 m/s | - | - |
| 1777566014 | 3.33° C | 51% | 996.9 hPa | - | 0.89 m/s, 321° | - | - |
| 1777565534 | 3.89° C | 50% | 996.9 hPa | - | 0.45 m/s, 277° | - | - |
| 1777565029 | 3.89° C | 49% | 997 hPa | - | 0.89 m/s, 325° | - | - |
| 1777564434 | 3.33° C | 52% | 997 hPa | - | 0.89 m/s, 312° | - | - |
| 1777563869 | 3.89° C | 53% | 997 hPa | - | 0.45 m/s, 107° | - | - |
| 1777563294 | 3.33° C | 54% | 997.1 hPa | - | 0.45 m/s, 195° | - | - |
| 1777562734 | 3.33° C | 55% | 997.1 hPa | - | 0.45 m/s, 235° | - | - |
| 1777562149 | 3.89° C | 52% | 997.1 hPa | - | 1.34 m/s, 303° | - | - |
| 1777561644 | 3.89° C | 53% | 997.1 hPa | - | 0.45 m/s, 195° | - | - |
| 1777561164 | 3.89° C | 50% | 997 hPa | - | 1.34 m/s, 259° | - | - |
| 1777560629 | 3.33° C | 55% | 997.1 hPa | - | 1.79 m/s, 271° | - | - |
| 1777560074 | 3.33° C | 55% | 997.1 hPa | - | 1.34 m/s, 260° | - | - |
| 1777559519 | 3.89° C | 52% | 997.1 hPa | - | 1.34 m/s, 202° | - | - |
| 1777558994 | 3.89° C | 49% | 997.1 hPa | - | 0.89 m/s, 177° | - | - |
| 1777558449 | 3.33° C | 49% | 997.3 hPa | - | 1.34 m/s, 266° | - | - |
| 1777557958 | 3.89° C | 49% | 997.3 hPa | - | 1.79 m/s, 293° | - | - |
| 1777557409 | 3.89° C | 49% | 997.3 hPa | - | 1.79 m/s, 285° | - | - |
| 1777556909 | 4.44° C | 48% | 997.4 hPa | - | 0.89 m/s, 195° | - | - |
| 1777556364 | 4.44° C | 50% | 997.3 hPa | - | 0.89 m/s, 182° | - | - |
| 1777555859 | 4.44° C | 49% | 997.4 hPa | - | 0.89 m/s, 126° | - | - |
| 1777555314 | 4.44° C | 49% | 997.3 hPa | - | 0.89 m/s, 170° | - | - |
* Rain since midnight (hover to see other rain measurements)
** Current wind speed in m/s (hover to see current wind gust speed)